sensor_id;sensor_type;location;lat;lon;timestamp;P1;durP1;ratioP1;P2;durP2;ratioP2
30287;SDS011;17103;48.316;11.558;2024-03-25T00:00:31;2.92;;;0.88;;
30287;SDS011;17103;48.316;11.558;2024-03-25T00:03:03;1.67;;;0.90;;
30287;SDS011;17103;48.316;11.558;2024-03-25T00:05:35;1.48;;;0.70;;
30287;SDS011;17103;48.316;11.558;2024-03-25T00:08:00;1.88;;;0.70;;
30287;SDS011;17103;48.316;11.558;2024-03-25T00:10:26;1.60;;;0.70;;
30287;SDS011;17103;48.316;11.558;2024-03-25T00:12:52;1.48;;;0.60;;
30287;SDS011;17103;48.316;11.558;2024-03-25T00:15:19;1.13;;;0.40;;
30287;SDS011;17103;48.316;11.558;2024-03-25T00:17:49;1.88;;;0.50;;
30287;SDS011;17103;48.316;11.558;2024-03-25T00:20:15;2.70;;;0.60;;
30287;SDS011;17103;48.316;11.558;2024-03-25T00:22:41;1.52;;;0.60;;
30287;SDS011;17103;48.316;11.558;2024-03-25T00:25:07;3.00;;;0.77;;
30287;SDS011;17103;48.316;11.558;2024-03-25T00:27:33;2.25;;;0.60;;
30287;SDS011;17103;48.316;11.558;2024-03-25T00:29:59;1.20;;;0.57;;
30287;SDS011;17103;48.316;11.558;2024-03-25T00:32:25;2.08;;;0.70;;
30287;SDS011;17103;48.316;11.558;2024-03-25T00:34:50;1.80;;;0.63;;
30287;SDS011;17103;48.316;11.558;2024-03-25T00:37:16;1.75;;;0.73;;
30287;SDS011;17103;48.316;11.558;2024-03-25T00:39:41;2.38;;;0.90;;
30287;SDS011;17103;48.316;11.558;2024-03-25T00:42:07;1.38;;;0.65;;
30287;SDS011;17103;48.316;11.558;2024-03-25T00:44:33;3.10;;;0.52;;
30287;SDS011;17103;48.316;11.558;2024-03-25T00:46:58;0.90;;;0.40;;
30287;SDS011;17103;48.316;11.558;2024-03-25T00:49:25;2.03;;;0.65;;
30287;SDS011;17103;48.316;11.558;2024-03-25T00:51:51;1.60;;;0.73;;
30287;SDS011;17103;48.316;11.558;2024-03-25T00:54:17;2.03;;;0.80;;
30287;SDS011;17103;48.316;11.558;2024-03-25T00:56:42;3.47;;;0.60;;
30287;SDS011;17103;48.316;11.558;2024-03-25T00:59:09;2.83;;;0.70;;
30287;SDS011;17103;48.316;11.558;2024-03-25T01:01:34;3.35;;;1.20;;
30287;SDS011;17103;48.316;11.558;2024-03-25T01:04:03;4.63;;;0.75;;
30287;SDS011;17103;48.316;11.558;2024-03-25T01:06:29;2.92;;;1.08;;
30287;SDS011;17103;48.316;11.558;2024-03-25T01:08:55;1.52;;;0.52;;
30287;SDS011;17103;48.316;11.558;2024-03-25T01:11:21;3.00;;;0.75;;
30287;SDS011;17103;48.316;11.558;2024-03-25T01:13:47;1.98;;;0.65;;
30287;SDS011;17103;48.316;11.558;2024-03-25T01:16:13;2.30;;;0.50;;
30287;SDS011;17103;48.316;11.558;2024-03-25T01:18:39;1.55;;;0.60;;
30287;SDS011;17103;48.316;11.558;2024-03-25T01:21:04;1.55;;;0.70;;
30287;SDS011;17103;48.316;11.558;2024-03-25T01:23:30;5.75;;;0.90;;
30287;SDS011;17103;48.316;11.558;2024-03-25T01:25:56;2.38;;;1.55;;
30287;SDS011;17103;48.316;11.558;2024-03-25T01:28:21;3.97;;;1.15;;
30287;SDS011;17103;48.316;11.558;2024-03-25T01:30:47;1.58;;;0.82;;
30287;SDS011;17103;48.316;11.558;2024-03-25T01:33:14;2.35;;;0.85;;
30287;SDS011;17103;48.316;11.558;2024-03-25T01:35:40;2.97;;;0.77;;
30287;SDS011;17103;48.316;11.558;2024-03-25T01:38:06;5.80;;;0.90;;
30287;SDS011;17103;48.316;11.558;2024-03-25T01:40:31;2.38;;;1.02;;
30287;SDS011;17103;48.316;11.558;2024-03-25T01:42:57;3.13;;;0.73;;
30287;SDS011;17103;48.316;11.558;2024-03-25T01:45:28;2.15;;;0.77;;
30287;SDS011;17103;48.316;11.558;2024-03-25T01:47:56;2.80;;;0.80;;
30287;SDS011;17103;48.316;11.558;2024-03-25T01:50:23;2.67;;;1.02;;
30287;SDS011;17103;48.316;11.558;2024-03-25T01:52:50;3.28;;;0.65;;
30287;SDS011;17103;48.316;11.558;2024-03-25T01:55:17;2.65;;;1.15;;
30287;SDS011;17103;48.316;11.558;2024-03-25T01:57:46;1.52;;;0.65;;
30287;SDS011;17103;48.316;11.558;2024-03-25T02:00:13;0.70;;;0.47;;
30287;SDS011;17103;48.316;11.558;2024-03-25T02:02:42;2.47;;;0.80;;
30287;SDS011;17103;48.316;11.558;2024-03-25T02:05:12;2.08;;;0.70;;
30287;SDS011;17103;48.316;11.558;2024-03-25T02:07:40;1.30;;;0.80;;
30287;SDS011;17103;48.316;11.558;2024-03-25T02:10:07;3.40;;;0.70;;
30287;SDS011;17103;48.316;11.558;2024-03-25T02:12:36;7.10;;;2.63;;
30287;SDS011;17103;48.316;11.558;2024-03-25T02:15:06;1.45;;;0.88;;
30287;SDS011;17103;48.316;11.558;2024-03-25T02:17:32;3.83;;;1.02;;
30287;SDS011;17103;48.316;11.558;2024-03-25T02:19:57;4.63;;;1.13;;
30287;SDS011;17103;48.316;11.558;2024-03-25T02:22:24;1.60;;;1.05;;
30287;SDS011;17103;48.316;11.558;2024-03-25T02:24:51;2.25;;;1.00;;
30287;SDS011;17103;48.316;11.558;2024-03-25T02:27:18;4.65;;;0.77;;
30287;SDS011;17103;48.316;11.558;2024-03-25T02:29:44;3.30;;;1.48;;
30287;SDS011;17103;48.316;11.558;2024-03-25T02:32:10;2.55;;;0.60;;
30287;SDS011;17103;48.316;11.558;2024-03-25T02:34:37;1.30;;;0.70;;
30287;SDS011;17103;48.316;11.558;2024-03-25T02:37:04;1.77;;;0.80;;
30287;SDS011;17103;48.316;11.558;2024-03-25T02:39:31;2.40;;;1.00;;
30287;SDS011;17103;48.316;11.558;2024-03-25T02:41:57;2.50;;;0.93;;
30287;SDS011;17103;48.316;11.558;2024-03-25T02:44:23;1.52;;;0.90;;
30287;SDS011;17103;48.316;11.558;2024-03-25T02:46:52;1.50;;;1.10;;
30287;SDS011;17103;48.316;11.558;2024-03-25T02:49:18;2.83;;;1.13;;
30287;SDS011;17103;48.316;11.558;2024-03-25T02:51:44;1.88;;;0.60;;
30287;SDS011;17103;48.316;11.558;2024-03-25T02:54:09;3.53;;;1.02;;
30287;SDS011;17103;48.316;11.558;2024-03-25T02:56:36;2.95;;;0.90;;
30287;SDS011;17103;48.316;11.558;2024-03-25T02:59:02;1.85;;;0.90;;
30287;SDS011;17103;48.316;11.558;2024-03-25T03:01:28;4.15;;;1.00;;
30287;SDS011;17103;48.316;11.558;2024-03-25T03:03:54;1.80;;;1.10;;
30287;SDS011;17103;48.316;11.558;2024-03-25T03:06:21;1.48;;;1.20;;
30287;SDS011;17103;48.316;11.558;2024-03-25T03:08:47;3.45;;;1.10;;
30287;SDS011;17103;48.316;11.558;2024-03-25T03:11:13;2.90;;;1.00;;
30287;SDS011;17103;48.316;11.558;2024-03-25T03:13:39;1.52;;;0.93;;
30287;SDS011;17103;48.316;11.558;2024-03-25T03:16:04;2.63;;;1.48;;
30287;SDS011;17103;48.316;11.558;2024-03-25T03:18:30;1.67;;;0.90;;
30287;SDS011;17103;48.316;11.558;2024-03-25T03:20:56;2.63;;;0.95;;
30287;SDS011;17103;48.316;11.558;2024-03-25T03:23:22;3.90;;;1.10;;
30287;SDS011;17103;48.316;11.558;2024-03-25T03:25:51;5.80;;;2.75;;
30287;SDS011;17103;48.316;11.558;2024-03-25T03:28:17;3.63;;;1.27;;
30287;SDS011;17103;48.316;11.558;2024-03-25T03:30:43;7.43;;;1.20;;
30287;SDS011;17103;48.316;11.558;2024-03-25T03:33:09;2.28;;;1.20;;
30287;SDS011;17103;48.316;11.558;2024-03-25T03:35:34;2.03;;;1.20;;
30287;SDS011;17103;48.316;11.558;2024-03-25T03:38:00;3.10;;;1.25;;
30287;SDS011;17103;48.316;11.558;2024-03-25T03:40:26;7.95;;;1.92;;
30287;SDS011;17103;48.316;11.558;2024-03-25T03:42:53;1.70;;;1.20;;
30287;SDS011;17103;48.316;11.558;2024-03-25T03:45:18;2.22;;;1.13;;
30287;SDS011;17103;48.316;11.558;2024-03-25T03:47:44;4.30;;;1.35;;
30287;SDS011;17103;48.316;11.558;2024-03-25T03:50:10;2.22;;;1.15;;
30287;SDS011;17103;48.316;11.558;2024-03-25T03:52:37;2.10;;;1.15;;
30287;SDS011;17103;48.316;11.558;2024-03-25T03:55:03;3.20;;;1.10;;
30287;SDS011;17103;48.316;11.558;2024-03-25T03:57:30;2.85;;;1.10;;
30287;SDS011;17103;48.316;11.558;2024-03-25T03:59:57;2.00;;;1.17;;
30287;SDS011;17103;48.316;11.558;2024-03-25T04:02:23;1.92;;;1.20;;
30287;SDS011;17103;48.316;11.558;2024-03-25T04:04:48;3.38;;;1.27;;
30287;SDS011;17103;48.316;11.558;2024-03-25T04:07:15;2.72;;;1.58;;
30287;SDS011;17103;48.316;11.558;2024-03-25T04:09:41;2.08;;;1.55;;
30287;SDS011;17103;48.316;11.558;2024-03-25T04:12:07;2.08;;;1.17;;
30287;SDS011;17103;48.316;11.558;2024-03-25T04:14:32;1.48;;;0.82;;
30287;SDS011;17103;48.316;11.558;2024-03-25T04:16:58;1.75;;;1.40;;
30287;SDS011;17103;48.316;11.558;2024-03-25T04:19:24;2.63;;;1.00;;
30287;SDS011;17103;48.316;11.558;2024-03-25T04:21:50;2.75;;;0.90;;
30287;SDS011;17103;48.316;11.558;2024-03-25T04:24:16;1.25;;;1.02;;
30287;SDS011;17103;48.316;11.558;2024-03-25T04:26:44;4.35;;;1.10;;
30287;SDS011;17103;48.316;11.558;2024-03-25T04:29:10;2.80;;;1.00;;
30287;SDS011;17103;48.316;11.558;2024-03-25T04:31:42;3.20;;;1.38;;
30287;SDS011;17103;48.316;11.558;2024-03-25T04:34:08;4.00;;;1.40;;
30287;SDS011;17103;48.316;11.558;2024-03-25T04:36:33;1.85;;;1.13;;
30287;SDS011;17103;48.316;11.558;2024-03-25T04:42:27;4.18;;;2.13;;
30287;SDS011;17103;48.316;11.558;2024-03-25T04:45:44;2.08;;;1.10;;
30287;SDS011;17103;48.316;11.558;2024-03-25T04:51:43;3.42;;;1.02;;
30287;SDS011;17103;48.316;11.558;2024-03-25T05:01:00;2.72;;;1.63;;
30287;SDS011;17103;48.316;11.558;2024-03-25T05:03:25;4.38;;;1.05;;
30287;SDS011;17103;48.316;11.558;2024-03-25T05:05:51;2.70;;;1.00;;
30287;SDS011;17103;48.316;11.558;2024-03-25T05:08:17;3.92;;;1.73;;
30287;SDS011;17103;48.316;11.558;2024-03-25T05:10:42;4.57;;;1.90;;
30287;SDS011;17103;48.316;11.558;2024-03-25T05:13:08;3.00;;;1.20;;
30287;SDS011;17103;48.316;11.558;2024-03-25T05:15:34;1.17;;;0.70;;
30287;SDS011;17103;48.316;11.558;2024-03-25T05:17:59;3.17;;;1.38;;
30287;SDS011;17103;48.316;11.558;2024-03-25T05:20:25;4.25;;;1.65;;
30287;SDS011;17103;48.316;11.558;2024-03-25T05:22:52;2.50;;;1.13;;
30287;SDS011;17103;48.316;11.558;2024-03-25T05:25:18;1.73;;;1.10;;
30287;SDS011;17103;48.316;11.558;2024-03-25T05:27:44;1.77;;;1.23;;
30287;SDS011;17103;48.316;11.558;2024-03-25T05:30:10;2.35;;;1.38;;
30287;SDS011;17103;48.316;11.558;2024-03-25T05:32:36;3.58;;;1.40;;
30287;SDS011;17103;48.316;11.558;2024-03-25T05:35:01;4.07;;;1.40;;
30287;SDS011;17103;48.316;11.558;2024-03-25T05:37:28;3.92;;;1.30;;
30287;SDS011;17103;48.316;11.558;2024-03-25T05:39:57;2.50;;;1.33;;
30287;SDS011;17103;48.316;11.558;2024-03-25T05:42:23;2.85;;;2.10;;
30287;SDS011;17103;48.316;11.558;2024-03-25T05:44:49;3.78;;;2.03;;
30287;SDS011;17103;48.316;11.558;2024-03-25T05:47:15;5.90;;;2.13;;
30287;SDS011;17103;48.316;11.558;2024-03-25T05:49:40;8.45;;;2.15;;
30287;SDS011;17103;48.316;11.558;2024-03-25T05:52:06;3.28;;;1.30;;
30287;SDS011;17103;48.316;11.558;2024-03-25T05:54:32;1.52;;;1.00;;
30287;SDS011;17103;48.316;11.558;2024-03-25T05:56:58;3.38;;;1.33;;
30287;SDS011;17103;48.316;11.558;2024-03-25T05:59:23;2.22;;;1.20;;
30287;SDS011;17103;48.316;11.558;2024-03-25T06:01:49;3.63;;;1.35;;
30287;SDS011;17103;48.316;11.558;2024-03-25T06:04:14;3.13;;;1.20;;
30287;SDS011;17103;48.316;11.558;2024-03-25T06:06:40;1.52;;;1.00;;
30287;SDS011;17103;48.316;11.558;2024-03-25T06:09:06;1.15;;;0.85;;
30287;SDS011;17103;48.316;11.558;2024-03-25T06:11:33;1.55;;;0.75;;
30287;SDS011;17103;48.316;11.558;2024-03-25T06:13:58;2.65;;;1.00;;
30287;SDS011;17103;48.316;11.558;2024-03-25T06:16:24;1.85;;;1.00;;
30287;SDS011;17103;48.316;11.558;2024-03-25T06:18:49;2.50;;;1.17;;
30287;SDS011;17103;48.316;11.558;2024-03-25T06:21:16;2.42;;;1.00;;
30287;SDS011;17103;48.316;11.558;2024-03-25T06:23:41;3.60;;;1.27;;
30287;SDS011;17103;48.316;11.558;2024-03-25T06:26:07;5.97;;;1.83;;
30287;SDS011;17103;48.316;11.558;2024-03-25T06:28:33;5.75;;;2.35;;
30287;SDS011;17103;48.316;11.558;2024-03-25T06:30:59;3.47;;;1.63;;
30287;SDS011;17103;48.316;11.558;2024-03-25T06:33:43;3.20;;;1.85;;
30287;SDS011;17103;48.316;11.558;2024-03-25T06:36:27;5.53;;;2.17;;
30287;SDS011;17103;48.316;11.558;2024-03-25T06:38:53;3.45;;;1.55;;
30287;SDS011;17103;48.316;11.558;2024-03-25T06:41:18;2.78;;;1.40;;
30287;SDS011;17103;48.316;11.558;2024-03-25T06:43:44;4.40;;;1.20;;
30287;SDS011;17103;48.316;11.558;2024-03-25T06:46:10;3.22;;;0.98;;
30287;SDS011;17103;48.316;11.558;2024-03-25T06:48:35;5.90;;;1.75;;
30287;SDS011;17103;48.316;11.558;2024-03-25T06:51:01;3.42;;;1.17;;
30287;SDS011;17103;48.316;11.558;2024-03-25T06:53:31;1.80;;;1.30;;
30287;SDS011;17103;48.316;11.558;2024-03-25T06:55:58;6.55;;;1.20;;
30287;SDS011;17103;48.316;11.558;2024-03-25T06:58:25;4.50;;;2.28;;
30287;SDS011;17103;48.316;11.558;2024-03-25T07:00:52;4.38;;;1.63;;
30287;SDS011;17103;48.316;11.558;2024-03-25T07:03:18;3.72;;;1.33;;
30287;SDS011;17103;48.316;11.558;2024-03-25T07:05:45;2.42;;;1.02;;
30287;SDS011;17103;48.316;11.558;2024-03-25T07:08:12;4.90;;;2.20;;
30287;SDS011;17103;48.316;11.558;2024-03-25T07:10:38;2.75;;;1.08;;
30287;SDS011;17103;48.316;11.558;2024-03-25T07:13:06;4.57;;;1.20;;
30287;SDS011;17103;48.316;11.558;2024-03-25T07:15:32;2.25;;;1.42;;
30287;SDS011;17103;48.316;11.558;2024-03-25T07:17:58;4.25;;;1.83;;
30287;SDS011;17103;48.316;11.558;2024-03-25T07:20:25;4.13;;;1.30;;
30287;SDS011;17103;48.316;11.558;2024-03-25T07:22:51;5.60;;;2.20;;
30287;SDS011;17103;48.316;11.558;2024-03-25T07:25:20;2.75;;;1.20;;
30287;SDS011;17103;48.316;11.558;2024-03-25T07:27:46;4.13;;;1.23;;
30287;SDS011;17103;48.316;11.558;2024-03-25T07:30:12;2.10;;;1.42;;
30287;SDS011;17103;48.316;11.558;2024-03-25T07:32:38;1.65;;;1.13;;
30287;SDS011;17103;48.316;11.558;2024-03-25T07:35:03;4.15;;;1.30;;
30287;SDS011;17103;48.316;11.558;2024-03-25T07:37:30;4.82;;;1.30;;
30287;SDS011;17103;48.316;11.558;2024-03-25T07:39:56;2.88;;;1.10;;
30287;SDS011;17103;48.316;11.558;2024-03-25T07:42:22;1.77;;;0.90;;
30287;SDS011;17103;48.316;11.558;2024-03-25T07:44:47;3.08;;;1.40;;
30287;SDS011;17103;48.316;11.558;2024-03-25T07:47:13;3.10;;;1.63;;
30287;SDS011;17103;48.316;11.558;2024-03-25T07:49:39;4.13;;;1.65;;
30287;SDS011;17103;48.316;11.558;2024-03-25T07:52:05;5.15;;;1.33;;
30287;SDS011;17103;48.316;11.558;2024-03-25T07:54:32;1.92;;;1.67;;
30287;SDS011;17103;48.316;11.558;2024-03-25T07:56:57;4.25;;;1.48;;
30287;SDS011;17103;48.316;11.558;2024-03-25T07:59:23;3.42;;;1.45;;
30287;SDS011;17103;48.316;11.558;2024-03-25T08:01:49;2.60;;;1.27;;
30287;SDS011;17103;48.316;11.558;2024-03-25T08:04:14;2.92;;;1.35;;
30287;SDS011;17103;48.316;11.558;2024-03-25T08:06:40;3.22;;;1.15;;
30287;SDS011;17103;48.316;11.558;2024-03-25T08:09:07;2.25;;;0.98;;
30287;SDS011;17103;48.316;11.558;2024-03-25T08:11:34;2.38;;;1.25;;
30287;SDS011;17103;48.316;11.558;2024-03-25T08:14:00;3.63;;;1.42;;
30287;SDS011;17103;48.316;11.558;2024-03-25T08:16:26;3.72;;;1.35;;
30287;SDS011;17103;48.316;11.558;2024-03-25T08:18:52;3.92;;;1.33;;
30287;SDS011;17103;48.316;11.558;2024-03-25T08:21:17;3.47;;;1.05;;
30287;SDS011;17103;48.316;11.558;2024-03-25T08:23:46;5.55;;;2.30;;
30287;SDS011;17103;48.316;11.558;2024-03-25T08:26:12;3.90;;;1.55;;
30287;SDS011;17103;48.316;11.558;2024-03-25T08:28:38;5.00;;;1.70;;
30287;SDS011;17103;48.316;11.558;2024-03-25T08:31:05;5.13;;;1.60;;
30287;SDS011;17103;48.316;11.558;2024-03-25T08:33:31;6.47;;;1.95;;
30287;SDS011;17103;48.316;11.558;2024-03-25T08:35:58;3.85;;;1.00;;
30287;SDS011;17103;48.316;11.558;2024-03-25T08:38:23;7.80;;;1.90;;
30287;SDS011;17103;48.316;11.558;2024-03-25T08:40:50;4.85;;;2.10;;
30287;SDS011;17103;48.316;11.558;2024-03-25T08:43:16;4.05;;;2.28;;
30287;SDS011;17103;48.316;11.558;2024-03-25T08:45:46;3.83;;;1.88;;
30287;SDS011;17103;48.316;11.558;2024-03-25T08:48:12;3.28;;;1.70;;
30287;SDS011;17103;48.316;11.558;2024-03-25T08:50:38;3.67;;;1.70;;
30287;SDS011;17103;48.316;11.558;2024-03-25T08:53:04;2.72;;;1.70;;
30287;SDS011;17103;48.316;11.558;2024-03-25T08:55:33;3.10;;;1.73;;
30287;SDS011;17103;48.316;11.558;2024-03-25T08:57:59;3.97;;;1.90;;
30287;SDS011;17103;48.316;11.558;2024-03-25T09:00:25;6.13;;;2.00;;
30287;SDS011;17103;48.316;11.558;2024-03-25T09:02:55;4.25;;;1.98;;
30287;SDS011;17103;48.316;11.558;2024-03-25T09:05:21;3.22;;;1.73;;
30287;SDS011;17103;48.316;11.558;2024-03-25T09:07:50;2.67;;;1.38;;
30287;SDS011;17103;48.316;11.558;2024-03-25T09:10:17;2.60;;;1.50;;
30287;SDS011;17103;48.316;11.558;2024-03-25T09:13:13;5.30;;;2.20;;
30287;SDS011;17103;48.316;11.558;2024-03-25T09:15:39;5.93;;;1.92;;
30287;SDS011;17103;48.316;11.558;2024-03-25T09:18:06;3.35;;;1.40;;
30287;SDS011;17103;48.316;11.558;2024-03-25T09:20:32;5.28;;;2.10;;
30287;SDS011;17103;48.316;11.558;2024-03-25T09:22:57;3.55;;;1.80;;
30287;SDS011;17103;48.316;11.558;2024-03-25T09:25:23;4.28;;;2.03;;
30287;SDS011;17103;48.316;11.558;2024-03-25T09:28:07;4.13;;;1.65;;
30287;SDS011;17103;48.316;11.558;2024-03-25T09:30:36;3.92;;;1.48;;
30287;SDS011;17103;48.316;11.558;2024-03-25T09:36:24;2.30;;;1.20;;
30287;SDS011;17103;48.316;11.558;2024-03-25T09:38:51;3.75;;;1.40;;
30287;SDS011;17103;48.316;11.558;2024-03-25T09:41:18;4.47;;;2.13;;
30287;SDS011;17103;48.316;11.558;2024-03-25T09:43:48;2.45;;;1.58;;
30287;SDS011;17103;48.316;11.558;2024-03-25T09:46:18;3.00;;;1.55;;
30287;SDS011;17103;48.316;11.558;2024-03-25T09:48:44;5.00;;;1.58;;
30287;SDS011;17103;48.316;11.558;2024-03-25T09:51:15;2.70;;;1.60;;
30287;SDS011;17103;48.316;11.558;2024-03-25T09:54:21;2.65;;;1.33;;
30287;SDS011;17103;48.316;11.558;2024-03-25T09:56:48;3.30;;;1.33;;
30287;SDS011;17103;48.316;11.558;2024-03-25T09:59:17;3.80;;;1.50;;
30287;SDS011;17103;48.316;11.558;2024-03-25T10:01:44;3.20;;;1.42;;
30287;SDS011;17103;48.316;11.558;2024-03-25T10:04:09;1.90;;;1.00;;
30287;SDS011;17103;48.316;11.558;2024-03-25T10:06:35;3.40;;;1.70;;
30287;SDS011;17103;48.316;11.558;2024-03-25T10:09:04;3.03;;;1.55;;
30287;SDS011;17103;48.316;11.558;2024-03-25T10:11:31;3.08;;;1.40;;
30287;SDS011;17103;48.316;11.558;2024-03-25T10:14:03;4.15;;;1.50;;
30287;SDS011;17103;48.316;11.558;2024-03-25T10:16:29;2.00;;;1.00;;
30287;SDS011;17103;48.316;11.558;2024-03-25T10:18:54;3.38;;;1.20;;
30287;SDS011;17103;48.316;11.558;2024-03-25T10:21:20;3.00;;;1.00;;
30287;SDS011;17103;48.316;11.558;2024-03-25T10:23:47;2.28;;;1.10;;
30287;SDS011;17103;48.316;11.558;2024-03-25T10:26:30;2.80;;;1.00;;
30287;SDS011;17103;48.316;11.558;2024-03-25T10:29:06;3.60;;;1.38;;
30287;SDS011;17103;48.316;11.558;2024-03-25T10:31:35;3.30;;;1.13;;
30287;SDS011;17103;48.316;11.558;2024-03-25T10:34:01;1.88;;;1.05;;
30287;SDS011;17103;48.316;11.558;2024-03-25T10:36:28;1.58;;;0.93;;
30287;SDS011;17103;48.316;11.558;2024-03-25T10:38:56;1.83;;;1.23;;
30287;SDS011;17103;48.316;11.558;2024-03-25T10:41:26;2.78;;;0.93;;
30287;SDS011;17103;48.316;11.558;2024-03-25T10:43:54;2.13;;;0.68;;
30287;SDS011;17103;48.316;11.558;2024-03-25T10:46:23;1.63;;;1.00;;
30287;SDS011;17103;48.316;11.558;2024-03-25T10:51:50;1.83;;;1.00;;
30287;SDS011;17103;48.316;11.558;2024-03-25T10:54:16;1.23;;;0.90;;
30287;SDS011;17103;48.316;11.558;2024-03-25T10:56:42;1.25;;;0.95;;
30287;SDS011;17103;48.316;11.558;2024-03-25T10:59:09;2.53;;;0.70;;
30287;SDS011;17103;48.316;11.558;2024-03-25T11:01:37;2.33;;;1.15;;
30287;SDS011;17103;48.316;11.558;2024-03-25T11:04:03;3.53;;;1.00;;
30287;SDS011;17103;48.316;11.558;2024-03-25T11:06:31;2.28;;;0.70;;
30287;SDS011;17103;48.316;11.558;2024-03-25T11:08:58;2.38;;;1.02;;
30287;SDS011;17103;48.316;11.558;2024-03-25T11:11:30;3.28;;;0.73;;
30287;SDS011;17103;48.316;11.558;2024-03-25T11:13:59;2.78;;;1.20;;
30287;SDS011;17103;48.316;11.558;2024-03-25T11:16:29;3.33;;;0.85;;
30287;SDS011;17103;48.316;11.558;2024-03-25T11:18:55;2.38;;;0.80;;
30287;SDS011;17103;48.316;11.558;2024-03-25T11:21:25;2.50;;;0.70;;
30287;SDS011;17103;48.316;11.558;2024-03-25T11:23:51;3.08;;;1.17;;
30287;SDS011;17103;48.316;11.558;2024-03-25T11:26:20;1.80;;;1.00;;
30287;SDS011;17103;48.316;11.558;2024-03-25T11:28:50;1.73;;;1.08;;
30287;SDS011;17103;48.316;11.558;2024-03-25T11:31:19;4.03;;;0.90;;
30287;SDS011;17103;48.316;11.558;2024-03-25T11:33:46;2.25;;;1.10;;
30287;SDS011;17103;48.316;11.558;2024-03-25T11:36:15;1.42;;;0.50;;
30287;SDS011;17103;48.316;11.558;2024-03-25T11:38:43;2.88;;;1.00;;
30287;SDS011;17103;48.316;11.558;2024-03-25T11:41:11;2.17;;;0.80;;
30287;SDS011;17103;48.316;11.558;2024-03-25T11:43:37;1.05;;;0.60;;
30287;SDS011;17103;48.316;11.558;2024-03-25T11:46:03;1.83;;;0.60;;
30287;SDS011;17103;48.316;11.558;2024-03-25T11:48:30;3.60;;;0.77;;
30287;SDS011;17103;48.316;11.558;2024-03-25T11:50:57;2.78;;;0.68;;
30287;SDS011;17103;48.316;11.558;2024-03-25T11:53:23;2.75;;;0.60;;
30287;SDS011;17103;48.316;11.558;2024-03-25T11:55:49;1.67;;;0.77;;
30287;SDS011;17103;48.316;11.558;2024-03-25T11:58:16;1.77;;;0.43;;
30287;SDS011;17103;48.316;11.558;2024-03-25T12:00:45;1.80;;;0.50;;
30287;SDS011;17103;48.316;11.558;2024-03-25T12:03:15;1.00;;;0.60;;
30287;SDS011;17103;48.316;11.558;2024-03-25T12:05:44;2.22;;;0.70;;
30287;SDS011;17103;48.316;11.558;2024-03-25T12:08:10;2.00;;;0.98;;
30287;SDS011;17103;48.316;11.558;2024-03-25T12:10:39;1.38;;;0.40;;
30287;SDS011;17103;48.316;11.558;2024-03-25T12:13:23;2.67;;;0.60;;
30287;SDS011;17103;48.316;11.558;2024-03-25T12:15:50;2.88;;;0.93;;
30287;SDS011;17103;48.316;11.558;2024-03-25T12:18:17;0.63;;;0.32;;
30287;SDS011;17103;48.316;11.558;2024-03-25T12:20:47;0.65;;;0.40;;
30287;SDS011;17103;48.316;11.558;2024-03-25T12:23:13;1.67;;;0.90;;
30287;SDS011;17103;48.316;11.558;2024-03-25T12:25:40;1.95;;;0.68;;
30287;SDS011;17103;48.316;11.558;2024-03-25T12:28:09;3.20;;;1.08;;
30287;SDS011;17103;48.316;11.558;2024-03-25T12:30:53;1.95;;;0.65;;
30287;SDS011;17103;48.316;11.558;2024-03-25T12:33:21;1.33;;;0.80;;
30287;SDS011;17103;48.316;11.558;2024-03-25T12:35:51;1.95;;;0.90;;
30287;SDS011;17103;48.316;11.558;2024-03-25T12:38:36;2.35;;;0.70;;
30287;SDS011;17103;48.316;11.558;2024-03-25T12:41:05;1.63;;;0.75;;
30287;SDS011;17103;48.316;11.558;2024-03-25T12:43:33;1.08;;;0.70;;
30287;SDS011;17103;48.316;11.558;2024-03-25T12:46:00;2.80;;;0.63;;
30287;SDS011;17103;48.316;11.558;2024-03-25T12:48:26;0.57;;;0.50;;
30287;SDS011;17103;48.316;11.558;2024-03-25T12:50:52;1.17;;;0.60;;
30287;SDS011;17103;48.316;11.558;2024-03-25T12:53:19;1.02;;;0.50;;
30287;SDS011;17103;48.316;11.558;2024-03-25T12:55:48;0.98;;;0.30;;
30287;SDS011;17103;48.316;11.558;2024-03-25T12:58:14;1.50;;;0.30;;
30287;SDS011;17103;48.316;11.558;2024-03-25T13:00:40;0.60;;;0.38;;
30287;SDS011;17103;48.316;11.558;2024-03-25T13:03:27;1.35;;;0.40;;
30287;SDS011;17103;48.316;11.558;2024-03-25T13:06:04;1.85;;;0.57;;
30287;SDS011;17103;48.316;11.558;2024-03-25T13:08:51;1.40;;;0.40;;
30287;SDS011;17103;48.316;11.558;2024-03-25T13:14:39;1.45;;;0.32;;
30287;SDS011;17103;48.316;11.558;2024-03-25T13:17:04;1.95;;;0.57;;
30287;SDS011;17103;48.316;11.558;2024-03-25T13:19:30;2.97;;;0.60;;
30287;SDS011;17103;48.316;11.558;2024-03-25T13:21:56;1.58;;;0.43;;
30287;SDS011;17103;48.316;11.558;2024-03-25T13:24:22;1.35;;;0.52;;
30287;SDS011;17103;48.316;11.558;2024-03-25T13:26:48;0.88;;;0.50;;
30287;SDS011;17103;48.316;11.558;2024-03-25T13:29:13;1.48;;;0.40;;
30287;SDS011;17103;48.316;11.558;2024-03-25T13:31:39;0.88;;;0.30;;
30287;SDS011;17103;48.316;11.558;2024-03-25T13:34:21;1.88;;;0.70;;
30287;SDS011;17103;48.316;11.558;2024-03-25T13:36:47;0.80;;;0.40;;
30287;SDS011;17103;48.316;11.558;2024-03-25T13:39:12;1.08;;;0.40;;
30287;SDS011;17103;48.316;11.558;2024-03-25T13:41:40;1.73;;;0.60;;
30287;SDS011;17103;48.316;11.558;2024-03-25T13:44:06;0.93;;;0.40;;
30287;SDS011;17103;48.316;11.558;2024-03-25T13:46:36;1.88;;;0.63;;
30287;SDS011;17103;48.316;11.558;2024-03-25T13:49:02;1.70;;;0.50;;
30287;SDS011;17103;48.316;11.558;2024-03-25T13:51:28;1.60;;;0.40;;
30287;SDS011;17103;48.316;11.558;2024-03-25T13:53:53;0.57;;;0.35;;
30287;SDS011;17103;48.316;11.558;2024-03-25T13:56:19;1.60;;;0.40;;
30287;SDS011;17103;48.316;11.558;2024-03-25T13:58:45;1.30;;;0.52;;
30287;SDS011;17103;48.316;11.558;2024-03-25T14:01:10;3.03;;;1.00;;
30287;SDS011;17103;48.316;11.558;2024-03-25T14:03:36;4.70;;;1.38;;
30287;SDS011;17103;48.316;11.558;2024-03-25T14:06:02;1.70;;;0.73;;
30287;SDS011;17103;48.316;11.558;2024-03-25T14:08:42;1.15;;;0.60;;
30287;SDS011;17103;48.316;11.558;2024-03-25T14:11:08;3.15;;;0.70;;
30287;SDS011;17103;48.316;11.558;2024-03-25T14:13:34;2.25;;;0.50;;
30287;SDS011;17103;48.316;11.558;2024-03-25T14:16:01;1.98;;;0.63;;
30287;SDS011;17103;48.316;11.558;2024-03-25T14:18:27;2.20;;;0.68;;
30287;SDS011;17103;48.316;11.558;2024-03-25T14:20:52;1.42;;;0.50;;
30287;SDS011;17103;48.316;11.558;2024-03-25T14:23:18;1.63;;;0.57;;
30287;SDS011;17103;48.316;11.558;2024-03-25T14:25:44;1.77;;;0.70;;
30287;SDS011;17103;48.316;11.558;2024-03-25T14:28:10;1.60;;;0.47;;
30287;SDS011;17103;48.316;11.558;2024-03-25T14:30:36;2.90;;;0.70;;
30287;SDS011;17103;48.316;11.558;2024-03-25T14:33:01;3.33;;;0.77;;
30287;SDS011;17103;48.316;11.558;2024-03-25T14:35:33;2.72;;;0.80;;
30287;SDS011;17103;48.316;11.558;2024-03-25T14:38:00;1.33;;;1.20;;
30287;SDS011;17103;48.316;11.558;2024-03-25T14:40:26;3.70;;;1.50;;
30287;SDS011;17103;48.316;11.558;2024-03-25T14:42:52;1.95;;;1.23;;
30287;SDS011;17103;48.316;11.558;2024-03-25T14:45:17;1.30;;;0.80;;
30287;SDS011;17103;48.316;11.558;2024-03-25T14:47:43;2.17;;;0.85;;
30287;SDS011;17103;48.316;11.558;2024-03-25T14:50:09;2.00;;;0.63;;
30287;SDS011;17103;48.316;11.558;2024-03-25T14:52:35;1.75;;;0.93;;
30287;SDS011;17103;48.316;11.558;2024-03-25T14:55:01;1.50;;;0.60;;
30287;SDS011;17103;48.316;11.558;2024-03-25T14:57:27;1.50;;;0.52;;